createdAt,value
2023-03-16T00:00:55.489Z,60.21
2023-03-16T00:03:31.049Z,60.44
2023-03-16T00:05:58.715Z,60.54
2023-03-16T00:08:27.196Z,60.72
2023-03-16T00:10:54.399Z,60.81
2023-03-16T00:13:25.574Z,60.65
2023-03-16T00:15:53.853Z,60.56
2023-03-16T00:18:22.444Z,60.46
2023-03-16T00:20:53.267Z,60.22
2023-03-16T00:23:20.623Z,60.82
2023-03-16T00:25:48.223Z,60.54
2023-03-16T00:28:18.124Z,60.79
2023-03-16T00:30:47.586Z,60.67
2023-03-16T00:33:15.121Z,60.94
2023-03-16T00:35:50.498Z,60.63
2023-03-16T00:38:20.017Z,61.15
2023-03-16T00:40:48.591Z,61.51
2023-03-16T00:43:19.017Z,61.63
2023-03-16T00:45:47.124Z,61.81
2023-03-16T00:48:14.733Z,61.56
2023-03-16T00:50:43.417Z,61.93
2023-03-16T00:53:11.133Z,61.67
2023-03-16T00:55:38.801Z,61.82
2023-03-16T00:58:08.816Z,61.61
2023-03-16T01:00:36.805Z,61.60
2023-03-16T01:03:04.158Z,61.47
2023-03-16T01:05:34.043Z,61.94
2023-03-16T01:08:04.882Z,61.84
2023-03-16T01:10:32.674Z,61.76
2023-03-16T01:13:01.263Z,61.41
2023-03-16T01:15:36.991Z,61.14
2023-03-16T01:18:05.281Z,61.16
2023-03-16T01:20:33.863Z,61.26
2023-03-16T01:23:02.587Z,61.89
2023-03-16T01:25:29.912Z,61.64
2023-03-16T01:27:59.646Z,61.12
2023-03-16T01:30:27.324Z,61.09
2023-03-16T01:32:54.777Z,60.73
2023-03-16T01:35:22.016Z,61.28
2023-03-16T01:37:50.367Z,61.42
2023-03-16T01:40:19.106Z,61.41
2023-03-16T01:42:50.695Z,61.54
2023-03-16T01:45:39.262Z,60.91
2023-03-16T01:48:06.354Z,60.80
2023-03-16T01:50:33.903Z,60.79
2023-03-16T01:53:09.530Z,61.14
2023-03-16T01:55:37.076Z,61.08
2023-03-16T01:58:04.421Z,61.13
2023-03-16T02:00:33.506Z,61.33
2023-03-16T02:03:05.206Z,61.04
2023-03-16T02:05:34.072Z,61.13
2023-03-16T02:08:03.867Z,61.19
2023-03-16T02:10:31.284Z,61.29
2023-03-16T02:13:18.856Z,60.98
2023-03-16T02:15:45.942Z,60.58
2023-03-16T02:18:13.668Z,60.29
2023-03-16T02:20:49.112Z,60.31
2023-03-16T02:23:19.832Z,60.18
2023-03-16T02:25:49.805Z,60.29
2023-03-16T02:28:26.533Z,60.09
2023-03-16T02:30:54.127Z,60.14
2023-03-16T02:33:21.688Z,59.82
2023-03-16T02:35:49.137Z,60.02
2023-03-16T02:38:23.771Z,59.71
2023-03-16T02:41:17.868Z,60.18
2023-03-16T02:43:49.434Z,61.00
2023-03-16T02:46:18.222Z,60.38
2023-03-16T02:48:49.491Z,60.79
2023-03-16T02:51:16.898Z,61.37
2023-03-16T02:53:44.724Z,61.75
2023-03-16T02:56:11.831Z,61.70
2023-03-16T02:58:51.568Z,61.00
2023-03-16T03:01:19.076Z,60.40
2023-03-16T03:03:46.511Z,60.81
2023-03-16T03:06:14.059Z,60.35
2023-03-16T03:08:41.364Z,59.86
2023-03-16T03:11:09.903Z,60.15
2023-03-16T03:13:45.073Z,61.03
2023-03-16T03:16:12.341Z,61.16
2023-03-16T03:18:39.477Z,60.55
2023-03-16T03:21:10.174Z,60.24
2023-03-16T03:23:37.638Z,59.85
2023-03-16T03:26:05.051Z,60.21
2023-03-16T03:28:37.400Z,60.91
2023-03-16T03:31:05.130Z,60.87
2023-03-16T03:33:34.789Z,61.03
2023-03-16T03:36:03.555Z,60.99
2023-03-16T03:38:31.719Z,60.33
2023-03-16T03:41:00.693Z,60.10
2023-03-16T03:43:27.914Z,59.78
2023-03-16T03:45:59.062Z,59.58
2023-03-16T03:48:26.588Z,58.97
2023-03-16T03:50:54.228Z,58.92
2023-03-16T03:53:21.683Z,59.09
2023-03-16T03:55:51.573Z,59.67
2023-03-16T03:58:19.877Z,59.92
2023-03-16T04:00:47.332Z,59.94
2023-03-16T04:03:15.397Z,59.69
2023-03-16T04:05:43.917Z,59.55
2023-03-16T04:08:12.016Z,59.79
2023-03-16T04:10:39.447Z,59.83
2023-03-16T04:13:13.660Z,59.70
2023-03-16T04:15:41.680Z,59.06
2023-03-16T04:18:09.456Z,59.48
2023-03-16T04:20:38.684Z,60.26
2023-03-16T04:23:07.238Z,60.87
2023-03-16T04:25:34.995Z,60.80
2023-03-16T04:28:02.434Z,60.67
2023-03-16T04:30:33.226Z,60.08
2023-03-16T04:33:03.339Z,60.01
2023-03-16T04:35:32.931Z,59.68
2023-03-16T04:38:00.341Z,59.79
2023-03-16T04:40:28.017Z,59.54
2023-03-16T04:42:56.035Z,59.62
2023-03-16T04:45:26.932Z,59.78
2023-03-16T04:47:54.345Z,59.88
2023-03-16T04:50:22.847Z,59.34
2023-03-16T04:52:50.652Z,59.83
2023-03-16T04:55:18.475Z,60.16
2023-03-16T04:57:46.150Z,60.14
2023-03-16T05:00:19.345Z,59.91
2023-03-16T05:02:47.824Z,60.08
2023-03-16T05:05:15.512Z,60.13
2023-03-16T05:07:43.218Z,60.19
2023-03-16T05:10:13.980Z,60.61
2023-03-16T05:12:41.359Z,60.47
2023-03-16T05:15:10.647Z,60.16
2023-03-16T05:17:40.221Z,59.81
2023-03-16T05:20:09.040Z,59.98
2023-03-16T05:22:36.695Z,60.82
2023-03-16T05:25:05.712Z,60.92
2023-03-16T05:27:35.620Z,60.95
2023-03-16T05:30:03.756Z,60.39
2023-03-16T05:32:32.272Z,59.97
2023-03-16T05:35:03.461Z,60.31
2023-03-16T05:37:32.404Z,60.04
2023-03-16T05:40:05.460Z,59.64
2023-03-16T05:42:32.996Z,59.70
2023-03-16T05:45:00.998Z,59.87
2023-03-16T05:47:28.773Z,59.59
2023-03-16T05:49:59.715Z,59.37
2023-03-16T05:52:28.394Z,59.87
2023-03-16T05:55:01.702Z,60.25
2023-03-16T05:57:29.566Z,60.42
2023-03-16T05:59:58.028Z,60.67
2023-03-16T06:02:28.096Z,60.58
2023-03-16T06:04:55.159Z,60.50
2023-03-16T06:07:23.419Z,60.13
2023-03-16T06:09:53.222Z,59.81
2023-03-16T06:12:22.215Z,59.90
2023-03-16T06:14:53.129Z,59.70
2023-03-16T06:17:24.071Z,59.26
2023-03-16T06:19:55.122Z,59.39
2023-03-16T06:22:22.217Z,59.45
2023-03-16T06:24:55.946Z,59.53
2023-03-16T06:27:26.768Z,59.15
2023-03-16T06:29:54.418Z,58.74
2023-03-16T06:32:23.046Z,58.36
2023-03-16T06:34:51.835Z,58.51
2023-03-16T06:37:20.310Z,57.82
2023-03-16T06:39:48.921Z,57.28
2023-03-16T06:42:16.303Z,57.08
2023-03-16T06:44:44.019Z,57.01
2023-03-16T06:47:12.147Z,57.22
2023-03-16T06:49:42.009Z,56.68
2023-03-16T06:52:14.953Z,56.64
2023-03-16T06:54:43.652Z,56.57
2023-03-16T06:57:10.809Z,56.15
2023-03-16T06:59:40.161Z,55.66
2023-03-16T07:02:07.474Z,54.79
2023-03-16T07:04:36.508Z,54.22
2023-03-16T07:07:08.981Z,54.30
2023-03-16T07:09:39.113Z,54.62
2023-03-16T07:12:07.886Z,54.48
2023-03-16T07:14:35.531Z,54.99
2023-03-16T07:17:02.958Z,54.21
2023-03-16T07:19:30.348Z,54.29
2023-03-16T07:22:03.855Z,54.01
2023-03-16T07:24:31.316Z,53.26
2023-03-16T07:27:02.411Z,53.25
2023-03-16T07:29:30.065Z,53.06
2023-03-16T07:31:58.877Z,52.50
2023-03-16T07:34:26.705Z,52.47
2023-03-16T07:36:54.430Z,51.88
2023-03-16T07:39:22.406Z,51.74
2023-03-16T07:41:50.364Z,51.32
2023-03-16T07:44:17.637Z,51.65
2023-03-16T07:46:47.338Z,51.55
2023-03-16T07:49:17.143Z,51.55
2023-03-16T07:51:44.850Z,51.25
2023-03-16T07:54:12.356Z,51.66
2023-03-16T07:56:49.625Z,51.73
2023-03-16T07:59:20.418Z,51.34
2023-03-16T08:01:47.777Z,51.28
2023-03-16T08:04:16.610Z,51.18
2023-03-16T08:06:43.877Z,50.71
2023-03-16T08:09:13.136Z,50.09
2023-03-16T08:11:41.915Z,49.50
2023-03-16T08:14:09.423Z,49.45
2023-03-16T08:16:37.825Z,49.87
2023-03-16T08:19:13.360Z,49.87
2023-03-16T08:21:59.961Z,49.51
2023-03-16T08:24:28.667Z,50.03
2023-03-16T08:26:57.685Z,49.94
2023-03-16T08:29:26.037Z,48.89
2023-03-16T08:31:57.845Z,48.30
2023-03-16T08:34:25.483Z,47.98
2023-03-16T08:36:52.922Z,48.67
2023-03-16T08:39:20.659Z,48.90
2023-03-16T08:41:49.630Z,48.31
2023-03-16T08:44:18.113Z,47.51
2023-03-16T08:46:47.771Z,47.15
2023-03-16T08:49:15.282Z,47.37
2023-03-16T08:51:45.042Z,47.70
2023-03-16T08:54:12.452Z,46.74
2023-03-16T08:56:40.877Z,46.07
2023-03-16T08:59:16.786Z,47.42
2023-03-16T09:01:50.843Z,47.02
2023-03-16T09:04:32.851Z,46.87
2023-03-16T09:07:09.684Z,47.25
2023-03-16T09:09:36.950Z,47.44
2023-03-16T09:12:04.468Z,47.02
2023-03-16T09:14:32.003Z,46.56
2023-03-16T09:17:00.015Z,46.00
2023-03-16T09:19:40.777Z,45.41
2023-03-16T09:22:17.783Z,45.42
2023-03-16T09:24:46.168Z,46.27
2023-03-16T09:27:13.484Z,46.03
2023-03-16T09:29:44.060Z,45.07
2023-03-16T09:32:11.628Z,45.23
2023-03-16T09:34:39.495Z,44.00
2023-03-16T09:37:09.038Z,43.80
2023-03-16T09:39:37.841Z,43.10
2023-03-16T09:42:16.050Z,42.64
2023-03-16T09:45:02.126Z,42.43
2023-03-16T09:47:37.356Z,41.58
2023-03-16T09:50:07.457Z,41.07
2023-03-16T09:52:56.013Z,40.93
2023-03-16T09:55:31.970Z,41.29
2023-03-16T09:58:00.201Z,41.29
2023-03-16T10:00:48.871Z,41.27
2023-03-16T10:03:31.991Z,40.59
2023-03-16T10:06:04.010Z,40.79
2023-03-16T10:08:38.141Z,40.36
2023-03-16T10:11:15.241Z,38.91
2023-03-16T10:13:48.953Z,38.80
2023-03-16T10:16:18.977Z,38.93
2023-03-16T10:18:47.852Z,38.00
2023-03-16T10:21:25.724Z,38.65
2023-03-16T10:23:53.011Z,38.36
2023-03-16T10:26:49.045Z,37.41
2023-03-16T10:29:17.693Z,37.65
2023-03-16T10:31:50.657Z,37.34
2023-03-16T10:34:19.552Z,37.74
2023-03-16T10:36:48.374Z,37.20
2023-03-16T10:39:17.770Z,36.66
2023-03-16T10:41:46.274Z,36.90
2023-03-16T10:44:23.050Z,36.35
2023-03-16T10:46:54.336Z,35.25
2023-03-16T10:49:23.034Z,35.76
2023-03-16T10:51:51.126Z,36.05
2023-03-16T10:54:28.457Z,36.41
2023-03-16T10:56:58.088Z,35.75
2023-03-16T10:59:28.117Z,35.56
2023-03-16T11:01:59.080Z,35.10
2023-03-16T11:04:27.233Z,35.74
2023-03-16T11:06:58.306Z,35.89
2023-03-16T11:09:35.676Z,36.41
2023-03-16T11:12:16.513Z,36.04
2023-03-16T11:14:45.325Z,35.96
2023-03-16T11:17:20.850Z,35.69
2023-03-16T11:19:54.964Z,35.31
2023-03-16T11:22:26.052Z,36.51
2023-03-16T11:25:06.959Z,36.41
2023-03-16T11:27:39.964Z,36.49
2023-03-16T11:30:21.747Z,35.31
2023-03-16T11:32:54.504Z,34.41
